sensor_id;sensor_type;location;lat;lon;timestamp;P1;durP1;ratioP1;P2;durP2;ratioP2
42124;SDS011;27787;44.594;11.046;2022-07-31T00:00:26;3.95;;;2.00;;
42124;SDS011;27787;44.594;11.046;2022-07-31T00:03:11;4.72;;;1.95;;
42124;SDS011;27787;44.594;11.046;2022-07-31T00:05:55;3.75;;;1.88;;
42124;SDS011;27787;44.594;11.046;2022-07-31T00:08:39;4.63;;;1.80;;
42124;SDS011;27787;44.594;11.046;2022-07-31T00:11:24;3.10;;;1.93;;
42124;SDS011;27787;44.594;11.046;2022-07-31T00:14:08;7.60;;;1.90;;
42124;SDS011;27787;44.594;11.046;2022-07-31T00:16:52;5.60;;;1.95;;
42124;SDS011;27787;44.594;11.046;2022-07-31T00:19:36;3.08;;;2.05;;
42124;SDS011;27787;44.594;11.046;2022-07-31T00:22:21;5.00;;;2.07;;
42124;SDS011;27787;44.594;11.046;2022-07-31T00:25:05;4.15;;;1.90;;
42124;SDS011;27787;44.594;11.046;2022-07-31T00:27:50;3.15;;;1.88;;
42124;SDS011;27787;44.594;11.046;2022-07-31T00:30:35;2.63;;;1.83;;
42124;SDS011;27787;44.594;11.046;2022-07-31T00:33:19;2.63;;;1.92;;
42124;SDS011;27787;44.594;11.046;2022-07-31T00:36:03;3.25;;;1.80;;
42124;SDS011;27787;44.594;11.046;2022-07-31T00:38:48;2.85;;;2.00;;
42124;SDS011;27787;44.594;11.046;2022-07-31T00:41:36;2.85;;;1.95;;
42124;SDS011;27787;44.594;11.046;2022-07-31T00:44:25;3.10;;;1.80;;
42124;SDS011;27787;44.594;11.046;2022-07-31T00:47:10;3.28;;;1.80;;
42124;SDS011;27787;44.594;11.046;2022-07-31T00:49:54;2.92;;;2.30;;
42124;SDS011;27787;44.594;11.046;2022-07-31T00:52:38;5.70;;;2.20;;
42124;SDS011;27787;44.594;11.046;2022-07-31T00:55:23;3.45;;;1.80;;
42124;SDS011;27787;44.594;11.046;2022-07-31T00:58:08;4.65;;;2.22;;
42124;SDS011;27787;44.594;11.046;2022-07-31T01:00:52;3.53;;;2.03;;
42124;SDS011;27787;44.594;11.046;2022-07-31T01:03:36;3.17;;;2.30;;
42124;SDS011;27787;44.594;11.046;2022-07-31T01:06:21;3.38;;;2.17;;
42124;SDS011;27787;44.594;11.046;2022-07-31T01:09:05;5.95;;;2.30;;
42124;SDS011;27787;44.594;11.046;2022-07-31T01:11:51;2.95;;;2.10;;
42124;SDS011;27787;44.594;11.046;2022-07-31T01:14:39;4.78;;;2.05;;
42124;SDS011;27787;44.594;11.046;2022-07-31T01:17:29;3.78;;;2.20;;
42124;SDS011;27787;44.594;11.046;2022-07-31T01:20:14;2.88;;;2.22;;
42124;SDS011;27787;44.594;11.046;2022-07-31T01:32:47;5.70;;;2.40;;
42124;SDS011;27787;44.594;11.046;2022-07-31T01:35:27;3.70;;;2.80;;
42124;SDS011;27787;44.594;11.046;2022-07-31T01:38:17;3.47;;;2.45;;
42124;SDS011;27787;44.594;11.046;2022-07-31T01:41:07;6.75;;;3.05;;
42124;SDS011;27787;44.594;11.046;2022-07-31T01:43:55;6.43;;;2.60;;
42124;SDS011;27787;44.594;11.046;2022-07-31T01:46:42;5.00;;;2.70;;
42124;SDS011;27787;44.594;11.046;2022-07-31T01:49:31;3.40;;;2.42;;
42124;SDS011;27787;44.594;11.046;2022-07-31T01:55:01;3.53;;;2.58;;
42124;SDS011;27787;44.594;11.046;2022-07-31T01:57:47;5.82;;;2.58;;
42124;SDS011;27787;44.594;11.046;2022-07-31T02:00:32;3.28;;;2.40;;
42124;SDS011;27787;44.594;11.046;2022-07-31T02:03:16;4.17;;;2.60;;
42124;SDS011;27787;44.594;11.046;2022-07-31T02:06:01;3.50;;;2.33;;
42124;SDS011;27787;44.594;11.046;2022-07-31T02:08:48;3.80;;;2.60;;
42124;SDS011;27787;44.594;11.046;2022-07-31T02:11:35;6.05;;;2.72;;
42124;SDS011;27787;44.594;11.046;2022-07-31T02:14:21;3.72;;;2.50;;
42124;SDS011;27787;44.594;11.046;2022-07-31T02:17:10;4.75;;;2.60;;
42124;SDS011;27787;44.594;11.046;2022-07-31T02:20:25;5.20;;;2.55;;
42124;SDS011;27787;44.594;11.046;2022-07-31T02:23:12;3.25;;;2.22;;
42124;SDS011;27787;44.594;11.046;2022-07-31T02:25:56;3.20;;;2.20;;
42124;SDS011;27787;44.594;11.046;2022-07-31T02:28:41;3.05;;;2.15;;
42124;SDS011;27787;44.594;11.046;2022-07-31T02:31:27;3.53;;;2.30;;
42124;SDS011;27787;44.594;11.046;2022-07-31T02:34:18;4.13;;;2.25;;
42124;SDS011;27787;44.594;11.046;2022-07-31T02:37:03;6.18;;;2.05;;
42124;SDS011;27787;44.594;11.046;2022-07-31T02:39:49;5.97;;;2.10;;
42124;SDS011;27787;44.594;11.046;2022-07-31T02:42:35;4.65;;;2.05;;
42124;SDS011;27787;44.594;11.046;2022-07-31T02:45:20;3.45;;;2.50;;
42124;SDS011;27787;44.594;11.046;2022-07-31T02:48:06;5.40;;;2.38;;
42124;SDS011;27787;44.594;11.046;2022-07-31T02:50:52;3.22;;;2.00;;
42124;SDS011;27787;44.594;11.046;2022-07-31T02:53:37;3.72;;;2.28;;
42124;SDS011;27787;44.594;11.046;2022-07-31T02:56:24;4.53;;;2.50;;
42124;SDS011;27787;44.594;11.046;2022-07-31T02:59:08;3.17;;;2.17;;
42124;SDS011;27787;44.594;11.046;2022-07-31T03:02:09;4.15;;;2.38;;
42124;SDS011;27787;44.594;11.046;2022-07-31T03:04:59;4.43;;;2.88;;
42124;SDS011;27787;44.594;11.046;2022-07-31T03:07:43;7.75;;;3.10;;
42124;SDS011;27787;44.594;11.046;2022-07-31T03:10:28;7.35;;;3.53;;
42124;SDS011;27787;44.594;11.046;2022-07-31T03:13:20;6.82;;;3.97;;
42124;SDS011;27787;44.594;11.046;2022-07-31T03:16:07;6.93;;;3.80;;
42124;SDS011;27787;44.594;11.046;2022-07-31T03:18:54;7.18;;;4.00;;
42124;SDS011;27787;44.594;11.046;2022-07-31T03:21:40;8.05;;;5.05;;
42124;SDS011;27787;44.594;11.046;2022-07-31T03:24:25;6.22;;;4.45;;
42124;SDS011;27787;44.594;11.046;2022-07-31T03:27:10;7.60;;;3.95;;
42124;SDS011;27787;44.594;11.046;2022-07-31T03:29:54;7.05;;;3.83;;
42124;SDS011;27787;44.594;11.046;2022-07-31T03:32:38;7.28;;;5.07;;
42124;SDS011;27787;44.594;11.046;2022-07-31T03:35:23;11.77;;;4.55;;
42124;SDS011;27787;44.594;11.046;2022-07-31T03:38:08;6.70;;;4.45;;
42124;SDS011;27787;44.594;11.046;2022-07-31T03:40:52;9.67;;;5.07;;
42124;SDS011;27787;44.594;11.046;2022-07-31T03:43:36;10.55;;;5.30;;
42124;SDS011;27787;44.594;11.046;2022-07-31T03:46:22;9.23;;;5.95;;
42124;SDS011;27787;44.594;11.046;2022-07-31T03:49:08;7.82;;;5.43;;
42124;SDS011;27787;44.594;11.046;2022-07-31T03:51:52;9.55;;;5.30;;
42124;SDS011;27787;44.594;11.046;2022-07-31T03:54:37;6.57;;;4.82;;
42124;SDS011;27787;44.594;11.046;2022-07-31T03:57:31;6.78;;;4.65;;
42124;SDS011;27787;44.594;11.046;2022-07-31T04:00:15;8.73;;;5.32;;
42124;SDS011;27787;44.594;11.046;2022-07-31T04:03:03;7.72;;;4.88;;
42124;SDS011;27787;44.594;11.046;2022-07-31T04:05:59;8.10;;;5.30;;
42124;SDS011;27787;44.594;11.046;2022-07-31T04:08:43;11.30;;;5.37;;
42124;SDS011;27787;44.594;11.046;2022-07-31T04:11:29;9.40;;;5.18;;
42124;SDS011;27787;44.594;11.046;2022-07-31T04:14:13;7.38;;;4.40;;
42124;SDS011;27787;44.594;11.046;2022-07-31T04:16:57;11.45;;;4.63;;
42124;SDS011;27787;44.594;11.046;2022-07-31T04:19:43;6.68;;;4.28;;
42124;SDS011;27787;44.594;11.046;2022-07-31T04:22:27;13.88;;;5.07;;
42124;SDS011;27787;44.594;11.046;2022-07-31T04:25:11;11.40;;;4.67;;
42124;SDS011;27787;44.594;11.046;2022-07-31T04:28:16;8.00;;;4.43;;
42124;SDS011;27787;44.594;11.046;2022-07-31T04:31:01;9.47;;;4.90;;
42124;SDS011;27787;44.594;11.046;2022-07-31T04:33:50;6.22;;;4.65;;
42124;SDS011;27787;44.594;11.046;2022-07-31T04:36:35;8.98;;;5.22;;
42124;SDS011;27787;44.594;11.046;2022-07-31T04:39:20;6.05;;;4.15;;
42124;SDS011;27787;44.594;11.046;2022-07-31T04:42:05;6.40;;;4.23;;
42124;SDS011;27787;44.594;11.046;2022-07-31T04:44:50;5.93;;;4.05;;
42124;SDS011;27787;44.594;11.046;2022-07-31T04:47:34;6.03;;;4.33;;
42124;SDS011;27787;44.594;11.046;2022-07-31T04:53:14;5.72;;;4.30;;
42124;SDS011;27787;44.594;11.046;2022-07-31T04:55:58;6.30;;;4.27;;
42124;SDS011;27787;44.594;11.046;2022-07-31T04:59:03;8.48;;;4.57;;
42124;SDS011;27787;44.594;11.046;2022-07-31T05:01:51;12.13;;;5.28;;
42124;SDS011;27787;44.594;11.046;2022-07-31T05:04:39;8.00;;;5.18;;
42124;SDS011;27787;44.594;11.046;2022-07-31T05:07:24;9.10;;;5.25;;
42124;SDS011;27787;44.594;11.046;2022-07-31T05:10:09;9.35;;;4.60;;
42124;SDS011;27787;44.594;11.046;2022-07-31T05:13:13;11.05;;;5.07;;
42124;SDS011;27787;44.594;11.046;2022-07-31T05:15:58;7.43;;;4.95;;
42124;SDS011;27787;44.594;11.046;2022-07-31T05:18:43;7.65;;;5.38;;
42124;SDS011;27787;44.594;11.046;2022-07-31T05:21:48;9.27;;;5.27;;
42124;SDS011;27787;44.594;11.046;2022-07-31T05:24:55;9.32;;;5.50;;
42124;SDS011;27787;44.594;11.046;2022-07-31T05:27:39;7.57;;;4.95;;
42124;SDS011;27787;44.594;11.046;2022-07-31T05:30:24;7.20;;;4.70;;
42124;SDS011;27787;44.594;11.046;2022-07-31T05:33:09;7.60;;;4.80;;
42124;SDS011;27787;44.594;11.046;2022-07-31T05:35:54;9.73;;;4.95;;
42124;SDS011;27787;44.594;11.046;2022-07-31T05:38:40;8.82;;;5.18;;
42124;SDS011;27787;44.594;11.046;2022-07-31T05:41:43;7.75;;;4.93;;
42124;SDS011;27787;44.594;11.046;2022-07-31T05:44:47;9.43;;;5.30;;
42124;SDS011;27787;44.594;11.046;2022-07-31T05:47:31;11.30;;;5.60;;
42124;SDS011;27787;44.594;11.046;2022-07-31T05:50:16;9.27;;;5.50;;
42124;SDS011;27787;44.594;11.046;2022-07-31T05:53:00;7.30;;;5.63;;
42124;SDS011;27787;44.594;11.046;2022-07-31T05:56:10;8.02;;;5.53;;
42124;SDS011;27787;44.594;11.046;2022-07-31T05:58:59;9.63;;;5.95;;
42124;SDS011;27787;44.594;11.046;2022-07-31T06:01:43;9.27;;;5.80;;
42124;SDS011;27787;44.594;11.046;2022-07-31T06:04:34;7.53;;;4.95;;
42124;SDS011;27787;44.594;11.046;2022-07-31T06:07:19;9.35;;;5.00;;
42124;SDS011;27787;44.594;11.046;2022-07-31T06:10:03;9.13;;;6.15;;
42124;SDS011;27787;44.594;11.046;2022-07-31T06:12:48;10.73;;;5.50;;
42124;SDS011;27787;44.594;11.046;2022-07-31T06:15:32;8.00;;;5.72;;
42124;SDS011;27787;44.594;11.046;2022-07-31T06:18:17;9.40;;;5.10;;
42124;SDS011;27787;44.594;11.046;2022-07-31T06:21:01;8.25;;;4.45;;
42124;SDS011;27787;44.594;11.046;2022-07-31T06:23:46;7.50;;;4.90;;
42124;SDS011;27787;44.594;11.046;2022-07-31T06:26:41;8.63;;;5.53;;
42124;SDS011;27787;44.594;11.046;2022-07-31T06:29:25;11.10;;;4.70;;
42124;SDS011;27787;44.594;11.046;2022-07-31T06:32:11;8.27;;;4.18;;
42124;SDS011;27787;44.594;11.046;2022-07-31T06:34:55;6.82;;;3.83;;
42124;SDS011;27787;44.594;11.046;2022-07-31T06:37:40;6.70;;;2.87;;
42124;SDS011;27787;44.594;11.046;2022-07-31T06:40:24;5.60;;;3.23;;
42124;SDS011;27787;44.594;11.046;2022-07-31T06:43:35;5.50;;;2.60;;
42124;SDS011;27787;44.594;11.046;2022-07-31T06:46:46;4.90;;;2.75;;
42124;SDS011;27787;44.594;11.046;2022-07-31T06:50:09;3.78;;;2.55;;
42124;SDS011;27787;44.594;11.046;2022-07-31T06:53:02;6.00;;;2.88;;
42124;SDS011;27787;44.594;11.046;2022-07-31T06:55:47;4.40;;;2.90;;
42124;SDS011;27787;44.594;11.046;2022-07-31T06:58:31;3.73;;;2.73;;
42124;SDS011;27787;44.594;11.046;2022-07-31T07:01:15;5.57;;;2.42;;
42124;SDS011;27787;44.594;11.046;2022-07-31T07:04:00;3.17;;;2.25;;
42124;SDS011;27787;44.594;11.046;2022-07-31T07:06:45;7.53;;;2.67;;
42124;SDS011;27787;44.594;11.046;2022-07-31T07:09:29;4.10;;;2.70;;
42124;SDS011;27787;44.594;11.046;2022-07-31T07:12:13;4.32;;;3.05;;
42124;SDS011;27787;44.594;11.046;2022-07-31T07:14:58;4.20;;;3.03;;
42124;SDS011;27787;44.594;11.046;2022-07-31T07:17:43;6.32;;;2.85;;
42124;SDS011;27787;44.594;11.046;2022-07-31T07:20:32;8.95;;;3.38;;
42124;SDS011;27787;44.594;11.046;2022-07-31T07:23:18;7.35;;;3.30;;
42124;SDS011;27787;44.594;11.046;2022-07-31T07:26:22;4.97;;;3.03;;
42124;SDS011;27787;44.594;11.046;2022-07-31T07:29:07;7.15;;;3.15;;
42124;SDS011;27787;44.594;11.046;2022-07-31T07:31:53;6.05;;;4.05;;
42124;SDS011;27787;44.594;11.046;2022-07-31T07:37:23;5.35;;;3.17;;
42124;SDS011;27787;44.594;11.046;2022-07-31T07:40:07;4.43;;;2.88;;
42124;SDS011;27787;44.594;11.046;2022-07-31T07:42:52;4.60;;;3.50;;
42124;SDS011;27787;44.594;11.046;2022-07-31T07:45:36;5.38;;;3.40;;
42124;SDS011;27787;44.594;11.046;2022-07-31T07:48:22;7.53;;;3.33;;
42124;SDS011;27787;44.594;11.046;2022-07-31T07:51:30;4.25;;;3.25;;
42124;SDS011;27787;44.594;11.046;2022-07-31T07:54:27;7.28;;;3.42;;
42124;SDS011;27787;44.594;11.046;2022-07-31T07:57:31;5.18;;;2.80;;
42124;SDS011;27787;44.594;11.046;2022-07-31T08:00:47;8.52;;;2.45;;
42124;SDS011;27787;44.594;11.046;2022-07-31T08:03:32;4.15;;;2.60;;
42124;SDS011;27787;44.594;11.046;2022-07-31T08:06:16;4.03;;;2.53;;
42124;SDS011;27787;44.594;11.046;2022-07-31T08:09:01;5.22;;;2.38;;
42124;SDS011;27787;44.594;11.046;2022-07-31T08:12:04;3.42;;;2.30;;
42124;SDS011;27787;44.594;11.046;2022-07-31T08:15:07;3.60;;;2.38;;
42124;SDS011;27787;44.594;11.046;2022-07-31T08:18:12;4.73;;;2.23;;
42124;SDS011;27787;44.594;11.046;2022-07-31T08:20:57;4.20;;;2.40;;
42124;SDS011;27787;44.594;11.046;2022-07-31T08:23:41;5.03;;;2.45;;
42124;SDS011;27787;44.594;11.046;2022-07-31T08:26:25;5.63;;;2.22;;
42124;SDS011;27787;44.594;11.046;2022-07-31T08:29:10;4.65;;;2.40;;
42124;SDS011;27787;44.594;11.046;2022-07-31T08:31:54;5.78;;;2.45;;
42124;SDS011;27787;44.594;11.046;2022-07-31T08:35:05;4.50;;;1.92;;
42124;SDS011;27787;44.594;11.046;2022-07-31T08:37:50;4.18;;;1.90;;
42124;SDS011;27787;44.594;11.046;2022-07-31T08:40:36;3.17;;;2.00;;
42124;SDS011;27787;44.594;11.046;2022-07-31T08:43:22;3.50;;;2.17;;
42124;SDS011;27787;44.594;11.046;2022-07-31T08:46:06;3.70;;;2.22;;
42124;SDS011;27787;44.594;11.046;2022-07-31T08:48:55;4.93;;;2.33;;
42124;SDS011;27787;44.594;11.046;2022-07-31T08:51:40;2.55;;;1.90;;
42124;SDS011;27787;44.594;11.046;2022-07-31T08:55:05;4.63;;;2.10;;
42124;SDS011;27787;44.594;11.046;2022-07-31T08:57:50;4.70;;;2.40;;
42124;SDS011;27787;44.594;11.046;2022-07-31T09:00:35;6.05;;;2.85;;
42124;SDS011;27787;44.594;11.046;2022-07-31T09:03:20;6.25;;;2.47;;
42124;SDS011;27787;44.594;11.046;2022-07-31T09:06:09;4.13;;;2.33;;
42124;SDS011;27787;44.594;11.046;2022-07-31T09:08:54;3.80;;;2.17;;
42124;SDS011;27787;44.594;11.046;2022-07-31T09:11:48;3.92;;;2.15;;
42124;SDS011;27787;44.594;11.046;2022-07-31T09:14:57;5.03;;;2.70;;
42124;SDS011;27787;44.594;11.046;2022-07-31T09:17:42;4.82;;;2.42;;
42124;SDS011;27787;44.594;11.046;2022-07-31T09:20:27;3.53;;;2.20;;
42124;SDS011;27787;44.594;11.046;2022-07-31T09:23:13;4.32;;;2.60;;
42124;SDS011;27787;44.594;11.046;2022-07-31T09:26:02;3.42;;;2.22;;
42124;SDS011;27787;44.594;11.046;2022-07-31T09:28:48;3.60;;;2.22;;
42124;SDS011;27787;44.594;11.046;2022-07-31T09:31:34;2.33;;;1.90;;
42124;SDS011;27787;44.594;11.046;2022-07-31T09:34:48;3.50;;;2.08;;
42124;SDS011;27787;44.594;11.046;2022-07-31T09:37:34;11.20;;;2.72;;
42124;SDS011;27787;44.594;11.046;2022-07-31T09:40:37;3.88;;;2.60;;
42124;SDS011;27787;44.594;11.046;2022-07-31T09:44:02;5.68;;;2.33;;
42124;SDS011;27787;44.594;11.046;2022-07-31T09:46:48;4.10;;;2.45;;
42124;SDS011;27787;44.594;11.046;2022-07-31T09:49:34;4.68;;;2.83;;
42124;SDS011;27787;44.594;11.046;2022-07-31T09:52:18;5.03;;;2.25;;
42124;SDS011;27787;44.594;11.046;2022-07-31T09:57:57;2.70;;;2.20;;
42124;SDS011;27787;44.594;11.046;2022-07-31T10:00:46;3.00;;;2.40;;
42124;SDS011;27787;44.594;11.046;2022-07-31T10:03:33;7.32;;;2.88;;
42124;SDS011;27787;44.594;11.046;2022-07-31T10:06:20;4.70;;;2.40;;
42124;SDS011;27787;44.594;11.046;2022-07-31T10:09:07;3.35;;;2.22;;
42124;SDS011;27787;44.594;11.046;2022-07-31T10:12:21;4.63;;;2.38;;
42124;SDS011;27787;44.594;11.046;2022-07-31T10:15:08;5.95;;;2.50;;
42124;SDS011;27787;44.594;11.046;2022-07-31T10:17:56;4.22;;;2.28;;
42124;SDS011;27787;44.594;11.046;2022-07-31T10:20:54;2.83;;;2.20;;
42124;SDS011;27787;44.594;11.046;2022-07-31T10:23:47;2.85;;;2.30;;
42124;SDS011;27787;44.594;11.046;2022-07-31T10:26:47;4.50;;;2.40;;
42124;SDS011;27787;44.594;11.046;2022-07-31T10:29:32;3.65;;;2.30;;
42124;SDS011;27787;44.594;11.046;2022-07-31T10:32:22;3.25;;;2.30;;
42124;SDS011;27787;44.594;11.046;2022-07-31T10:35:47;2.72;;;2.20;;
42124;SDS011;27787;44.594;11.046;2022-07-31T10:45:26;4.30;;;2.20;;
42124;SDS011;27787;44.594;11.046;2022-07-31T10:48:20;3.92;;;1.88;;
42124;SDS011;27787;44.594;11.046;2022-07-31T10:51:25;3.95;;;2.20;;
42124;SDS011;27787;44.594;11.046;2022-07-31T10:54:22;2.83;;;1.95;;
42124;SDS011;27787;44.594;11.046;2022-07-31T10:57:36;2.67;;;1.92;;
42124;SDS011;27787;44.594;11.046;2022-07-31T11:00:43;4.22;;;2.10;;
42124;SDS011;27787;44.594;11.046;2022-07-31T11:03:47;2.00;;;1.63;;
42124;SDS011;27787;44.594;11.046;2022-07-31T11:06:49;5.88;;;1.95;;
42124;SDS011;27787;44.594;11.046;2022-07-31T11:09:53;4.25;;;2.30;;
42124;SDS011;27787;44.594;11.046;2022-07-31T11:13:12;2.15;;;1.65;;
42124;SDS011;27787;44.594;11.046;2022-07-31T11:16:09;3.40;;;1.80;;
42124;SDS011;27787;44.594;11.046;2022-07-31T11:19:17;3.60;;;1.60;;
42124;SDS011;27787;44.594;11.046;2022-07-31T11:22:07;4.28;;;1.73;;
42124;SDS011;27787;44.594;11.046;2022-07-31T11:24:53;1.85;;;1.58;;
42124;SDS011;27787;44.594;11.046;2022-07-31T11:27:41;3.45;;;1.80;;
42124;SDS011;27787;44.594;11.046;2022-07-31T11:30:25;2.92;;;1.67;;
42124;SDS011;27787;44.594;11.046;2022-07-31T11:33:09;2.35;;;1.42;;
42124;SDS011;27787;44.594;11.046;2022-07-31T11:35:53;2.88;;;1.88;;
42124;SDS011;27787;44.594;11.046;2022-07-31T11:38:39;2.22;;;1.58;;
42124;SDS011;27787;44.594;11.046;2022-07-31T11:41:28;1.95;;;1.52;;
42124;SDS011;27787;44.594;11.046;2022-07-31T11:44:18;4.13;;;1.80;;
42124;SDS011;27787;44.594;11.046;2022-07-31T11:47:03;2.38;;;1.65;;
42124;SDS011;27787;44.594;11.046;2022-07-31T11:49:48;2.70;;;1.42;;
42124;SDS011;27787;44.594;11.046;2022-07-31T11:52:42;5.87;;;1.47;;
42124;SDS011;27787;44.594;11.046;2022-07-31T11:55:26;1.70;;;1.30;;
42124;SDS011;27787;44.594;11.046;2022-07-31T11:58:10;1.75;;;1.38;;
42124;SDS011;27787;44.594;11.046;2022-07-31T12:00:56;1.95;;;1.45;;
42124;SDS011;27787;44.594;11.046;2022-07-31T12:03:42;2.17;;;1.42;;
42124;SDS011;27787;44.594;11.046;2022-07-31T12:09:11;1.50;;;1.40;;
42124;SDS011;27787;44.594;11.046;2022-07-31T12:12:05;2.67;;;1.50;;
42124;SDS011;27787;44.594;11.046;2022-07-31T12:14:50;1.70;;;1.33;;
42124;SDS011;27787;44.594;11.046;2022-07-31T12:17:35;2.67;;;1.55;;
42124;SDS011;27787;44.594;11.046;2022-07-31T12:20:19;2.42;;;1.52;;
42124;SDS011;27787;44.594;11.046;2022-07-31T12:23:04;1.90;;;1.40;;
42124;SDS011;27787;44.594;11.046;2022-07-31T12:25:54;12.18;;;1.55;;
42124;SDS011;27787;44.594;11.046;2022-07-31T12:28:38;1.95;;;1.50;;
42124;SDS011;27787;44.594;11.046;2022-07-31T12:31:23;1.80;;;1.40;;
42124;SDS011;27787;44.594;11.046;2022-07-31T12:34:07;2.80;;;2.00;;
42124;SDS011;27787;44.594;11.046;2022-07-31T12:37:11;2.33;;;1.55;;
42124;SDS011;27787;44.594;11.046;2022-07-31T12:40:00;2.47;;;1.30;;
42124;SDS011;27787;44.594;11.046;2022-07-31T12:42:44;2.35;;;1.33;;
42124;SDS011;27787;44.594;11.046;2022-07-31T12:48:13;1.80;;;1.42;;
42124;SDS011;27787;44.594;11.046;2022-07-31T12:50:57;2.03;;;1.30;;
42124;SDS011;27787;44.594;11.046;2022-07-31T12:53:44;2.13;;;1.48;;
42124;SDS011;27787;44.594;11.046;2022-07-31T12:56:28;4.38;;;1.48;;
42124;SDS011;27787;44.594;11.046;2022-07-31T12:59:13;5.95;;;1.42;;
42124;SDS011;27787;44.594;11.046;2022-07-31T13:01:57;1.33;;;1.20;;
42124;SDS011;27787;44.594;11.046;2022-07-31T13:04:41;1.13;;;0.97;;
42124;SDS011;27787;44.594;11.046;2022-07-31T13:07:26;1.85;;;1.00;;
42124;SDS011;27787;44.594;11.046;2022-07-31T13:10:10;1.20;;;1.10;;
42124;SDS011;27787;44.594;11.046;2022-07-31T13:12:55;2.10;;;1.08;;
42124;SDS011;27787;44.594;11.046;2022-07-31T13:15:39;1.73;;;1.10;;
42124;SDS011;27787;44.594;11.046;2022-07-31T13:18:24;1.63;;;1.10;;
42124;SDS011;27787;44.594;11.046;2022-07-31T13:21:07;1.33;;;0.90;;
42124;SDS011;27787;44.594;11.046;2022-07-31T13:23:53;1.75;;;1.33;;
42124;SDS011;27787;44.594;11.046;2022-07-31T13:26:38;1.13;;;1.02;;
42124;SDS011;27787;44.594;11.046;2022-07-31T13:29:23;1.60;;;1.10;;
42124;SDS011;27787;44.594;11.046;2022-07-31T13:32:08;1.20;;;1.10;;
42124;SDS011;27787;44.594;11.046;2022-07-31T13:34:51;4.50;;;1.30;;
42124;SDS011;27787;44.594;11.046;2022-07-31T13:37:36;1.48;;;1.10;;
42124;SDS011;27787;44.594;11.046;2022-07-31T13:40:20;2.07;;;1.30;;
42124;SDS011;27787;44.594;11.046;2022-07-31T13:43:24;1.50;;;1.27;;
42124;SDS011;27787;44.594;11.046;2022-07-31T13:46:08;1.20;;;1.10;;
42124;SDS011;27787;44.594;11.046;2022-07-31T13:48:54;1.85;;;1.30;;
42124;SDS011;27787;44.594;11.046;2022-07-31T13:51:39;1.33;;;0.98;;
42124;SDS011;27787;44.594;11.046;2022-07-31T13:54:23;3.75;;;1.20;;
42124;SDS011;27787;44.594;11.046;2022-07-31T13:59:52;1.92;;;1.27;;
42124;SDS011;27787;44.594;11.046;2022-07-31T14:02:36;1.50;;;1.10;;
42124;SDS011;27787;44.594;11.046;2022-07-31T14:05:20;1.30;;;1.10;;
42124;SDS011;27787;44.594;11.046;2022-07-31T14:08:05;1.65;;;1.30;;
42124;SDS011;27787;44.594;11.046;2022-07-31T14:10:50;1.23;;;1.10;;
42124;SDS011;27787;44.594;11.046;2022-07-31T14:13:45;5.03;;;1.27;;
42124;SDS011;27787;44.594;11.046;2022-07-31T14:16:29;2.33;;;1.23;;
42124;SDS011;27787;44.594;11.046;2022-07-31T14:19:13;1.60;;;1.20;;
42124;SDS011;27787;44.594;11.046;2022-07-31T14:21:57;1.13;;;0.98;;
42124;SDS011;27787;44.594;11.046;2022-07-31T14:24:41;5.80;;;1.58;;
42124;SDS011;27787;44.594;11.046;2022-07-31T14:27:26;1.60;;;1.20;;
42124;SDS011;27787;44.594;11.046;2022-07-31T14:30:10;1.20;;;1.10;;
42124;SDS011;27787;44.594;11.046;2022-07-31T14:32:55;1.60;;;1.02;;
42124;SDS011;27787;44.594;11.046;2022-07-31T14:35:40;1.65;;;1.13;;
42124;SDS011;27787;44.594;11.046;2022-07-31T14:41:08;1.65;;;1.20;;
42124;SDS011;27787;44.594;11.046;2022-07-31T14:43:52;1.77;;;1.20;;
42124;SDS011;27787;44.594;11.046;2022-07-31T14:46:37;1.15;;;1.05;;
42124;SDS011;27787;44.594;11.046;2022-07-31T14:49:21;1.60;;;1.20;;
42124;SDS011;27787;44.594;11.046;2022-07-31T14:52:05;1.08;;;0.90;;
42124;SDS011;27787;44.594;11.046;2022-07-31T14:54:49;1.30;;;1.10;;
42124;SDS011;27787;44.594;11.046;2022-07-31T14:57:34;1.05;;;0.95;;
42124;SDS011;27787;44.594;11.046;2022-07-31T15:00:18;2.55;;;1.23;;
42124;SDS011;27787;44.594;11.046;2022-07-31T15:03:03;1.50;;;1.20;;
42124;SDS011;27787;44.594;11.046;2022-07-31T15:05:47;1.88;;;1.10;;
42124;SDS011;27787;44.594;11.046;2022-07-31T15:08:31;1.48;;;1.20;;
42124;SDS011;27787;44.594;11.046;2022-07-31T15:11:19;2.05;;;1.20;;
42124;SDS011;27787;44.594;11.046;2022-07-31T15:14:03;2.35;;;1.20;;
42124;SDS011;27787;44.594;11.046;2022-07-31T15:19:32;3.28;;;1.30;;
42124;SDS011;27787;44.594;11.046;2022-07-31T15:22:16;1.47;;;1.10;;
42124;SDS011;27787;44.594;11.046;2022-07-31T15:25:01;2.85;;;1.08;;
42124;SDS011;27787;44.594;11.046;2022-07-31T15:27:46;1.98;;;1.20;;
42124;SDS011;27787;44.594;11.046;2022-07-31T15:30:31;1.55;;;1.25;;
42124;SDS011;27787;44.594;11.046;2022-07-31T15:33:16;2.47;;;1.10;;
42124;SDS011;27787;44.594;11.046;2022-07-31T15:36:00;1.15;;;1.05;;
42124;SDS011;27787;44.594;11.046;2022-07-31T15:38:45;2.35;;;1.30;;
42124;SDS011;27787;44.594;11.046;2022-07-31T15:41:29;1.77;;;1.35;;
42124;SDS011;27787;44.594;11.046;2022-07-31T15:44:14;3.53;;;1.17;;
42124;SDS011;27787;44.594;11.046;2022-07-31T15:46:58;1.45;;;1.10;;
42124;SDS011;27787;44.594;11.046;2022-07-31T15:49:42;1.15;;;1.02;;
42124;SDS011;27787;44.594;11.046;2022-07-31T15:55:11;2.20;;;1.40;;
42124;SDS011;27787;44.594;11.046;2022-07-31T15:57:56;2.38;;;1.30;;
42124;SDS011;27787;44.594;11.046;2022-07-31T16:00:40;3.00;;;1.30;;
42124;SDS011;27787;44.594;11.046;2022-07-31T16:03:24;5.10;;;1.23;;
42124;SDS011;27787;44.594;11.046;2022-07-31T16:06:08;2.60;;;1.20;;
42124;SDS011;27787;44.594;11.046;2022-07-31T16:08:52;1.45;;;1.15;;
42124;SDS011;27787;44.594;11.046;2022-07-31T16:11:36;4.43;;;1.58;;
42124;SDS011;27787;44.594;11.046;2022-07-31T16:14:20;1.50;;;1.30;;
42124;SDS011;27787;44.594;11.046;2022-07-31T16:17:04;2.10;;;1.20;;
42124;SDS011;27787;44.594;11.046;2022-07-31T16:19:49;1.17;;;1.05;;
42124;SDS011;27787;44.594;11.046;2022-07-31T16:22:34;1.83;;;1.48;;
42124;SDS011;27787;44.594;11.046;2022-07-31T16:25:19;1.60;;;1.20;;
42124;SDS011;27787;44.594;11.046;2022-07-31T16:28:05;1.33;;;1.13;;
42124;SDS011;27787;44.594;11.046;2022-07-31T16:30:49;1.40;;;1.20;;
42124;SDS011;27787;44.594;11.046;2022-07-31T16:33:33;2.00;;;1.23;;
42124;SDS011;27787;44.594;11.046;2022-07-31T16:36:17;2.20;;;1.20;;
42124;SDS011;27787;44.594;11.046;2022-07-31T16:39:03;2.10;;;1.20;;
42124;SDS011;27787;44.594;11.046;2022-07-31T16:41:47;3.50;;;1.23;;
42124;SDS011;27787;44.594;11.046;2022-07-31T16:44:32;2.97;;;1.30;;
42124;SDS011;27787;44.594;11.046;2022-07-31T16:47:19;4.93;;;1.30;;
42124;SDS011;27787;44.594;11.046;2022-07-31T16:50:04;2.05;;;1.23;;
42124;SDS011;27787;44.594;11.046;2022-07-31T16:52:50;2.38;;;1.30;;
42124;SDS011;27787;44.594;11.046;2022-07-31T16:55:34;1.60;;;1.30;;
42124;SDS011;27787;44.594;11.046;2022-07-31T16:58:18;1.85;;;1.33;;
42124;SDS011;27787;44.594;11.046;2022-07-31T17:01:02;3.20;;;1.73;;
42124;SDS011;27787;44.594;11.046;2022-07-31T17:03:47;1.95;;;1.33;;
42124;SDS011;27787;44.594;11.046;2022-07-31T17:06:32;1.50;;;1.15;;
42124;SDS011;27787;44.594;11.046;2022-07-31T17:09:18;1.83;;;1.05;;
42124;SDS011;27787;44.594;11.046;2022-07-31T17:12:02;1.42;;;1.27;;
42124;SDS011;27787;44.594;11.046;2022-07-31T17:14:47;2.67;;;1.77;;
42124;SDS011;27787;44.594;11.046;2022-07-31T17:17:32;1.67;;;1.40;;
42124;SDS011;27787;44.594;11.046;2022-07-31T17:20:16;1.70;;;1.33;;